This is the latest recevied weather packets stored in our database for station/object K2ATL. If no packets are shown the sender has not sent any weather packets the latest 10 day(s).
| Time | Temp. | Humidity | Pressure | Rain* | Wind** | Luminosity | Snow |
|---|---|---|---|---|---|---|---|
| 1778080596 | 15.56° C | 98% | 1101.1 hPa | 7.87 mm | - | 33 W/m² | - |
| 1778080293 | 15.56° C | 98% | 1101.2 hPa | 8.89 mm | - | 38 W/m² | - |
| 1778079990 | 15.56° C | 98% | 1101.1 hPa | 7.87 mm | - | 68 W/m² | - |
| 1778079687 | 15.56° C | 96% | 1101.2 hPa | 3.05 mm | - | 12 W/m² | - |
| 1778079383 | 15.56° C | 96% | 1100.7 hPa | 0 mm | - | 50 W/m² | - |
| 1778079080 | 15.56° C | 96% | 1100.8 hPa | 0 mm | - | 53 W/m² | - |
| 1778078778 | 15.56° C | 95% | 1100.7 hPa | 0 mm | - | 59 W/m² | - |
| 1778078474 | 15.56° C | 94% | 1100.8 hPa | 0 mm | - | 37 W/m² | - |
| 1778078172 | 15.56° C | 94% | 1100.9 hPa | 0 mm | - | 25 W/m² | - |
| 1778077870 | 16.11° C | 93% | 1100.8 hPa | 0 mm | - | 16 W/m² | - |
| 1778077568 | 16.11° C | 93% | 1100.3 hPa | 0 mm | - | 35 W/m² | - |
| 1778077266 | 16.11° C | 92% | 1100.4 hPa | 0 mm | - | 28 W/m² | - |
| 1778076963 | 16.67° C | 89% | 1100.5 hPa | 0 mm | - | 17 W/m² | - |
| 1778076661 | 16.67° C | 88% | 1100.5 hPa | 0 mm | - | 29 W/m² | - |
| 1778076358 | 16.67° C | 88% | 1100.3 hPa | 0 mm | - | 37 W/m² | - |
| 1778076056 | 16.67° C | 88% | 1100.1 hPa | 0 mm | - | 33 W/m² | - |
| 1778075752 | 16.67° C | 87% | 1100.1 hPa | 0 mm | - | 41 W/m² | - |
| 1778075448 | 16.67° C | 87% | 1100 hPa | 0 mm | - | 41 W/m² | - |
| 1778075145 | 16.67° C | 87% | 1099.9 hPa | 0 mm | - | 47 W/m² | - |
| 1778074841 | 16.67° C | 87% | 1100.2 hPa | 0 mm | - | 47 W/m² | - |
| 1778074538 | 16.67° C | 86% | 1099.9 hPa | 0 mm | - | 45 W/m² | - |
| 1778074235 | 16.67° C | 86% | 1100.2 hPa | 0 mm | - | 26 W/m² | - |
| 1778073932 | 16.67° C | 86% | 1099.9 hPa | 0 mm | - | 29 W/m² | - |
| 1778073630 | 16.67° C | 85% | 1100 hPa | 0 mm | - | 21 W/m² | - |
| 1778073327 | 16.67° C | 85% | 1099.9 hPa | 0 mm | - | 20 W/m² | - |
* Rain latest hour (hover to see other rain measurements)
** Current wind speed in m/s (hover to see current wind gust speed)